KIMM

Details ICAO KIMM
Name Immokalee
Region United States
Timezone America/New_York (UTC-5.0)
Plans Departing 1
Arriving 4
Stats Elevation 36 ft / 11 m (AMSL)
Location 26.433170° -81.401027°
Runways 3
Magnetic Variation 6.047° W
Sunrise 2017-12-13 12:06:20 UTC / 2017-12-13 07:06:20 Local
Sunset 2017-12-13 22:36:19 UTC / 2017-12-13 17:36:19 Local
Advertisement - Login to hide

Runways

ID Width Length Bearing (true) Bearing (mag) Surface Threshold Offset Overrun Length
04 150 ft / 46 m 5,011 ft / 1,527 m 36.20° 42.25° Asphalt 0 ft / 0 m 0 ft / 0 m
09 150 ft / 46 m 4,992 ft / 1,522 m 88.01° 94.06° Asphalt 0 ft / 0 m 0 ft / 0 m
18 150 ft / 46 m 5,019 ft / 1,530 m 178.03° 184.08° Asphalt 0 ft / 0 m 0 ft / 0 m
22 150 ft / 46 m 5,011 ft / 1,527 m 216.20° 222.25° Asphalt 0 ft / 0 m 0 ft / 0 m
27 150 ft / 46 m 4,992 ft / 1,522 m 268.01° 274.06° Asphalt 0 ft / 0 m 0 ft / 0 m
36 150 ft / 46 m 5,019 ft / 1,530 m 358.03° 4.08° Asphalt 990 ft / 302 m 0 ft / 0 m

Map

Weather


0- 5 10 15 20 25 30 35+ Temperature / ° C

Clouds and Precipitation
Forecast for 2017-12-13 12:00 UTC. Updated 38 minutes ago

Ground ~20,000 ft ~40,000 ft Winds

METAR

KIMM 130735Z AUTO 35004KT 10SM BKN024 BKN029 11/10 A3003 RMK AO2

TAF

Not found

Frequencies

Unicom 122.90 MHz CTAF
Approach 119.75 MHz FORT MYERS APP/DEP
Warning: Do not use this data for real-world aviation or navigation. No guarantee of current accuracy is given.